createdAt,value
2018-04-07T00:01:52.937Z,53.28
2018-04-07T01:29:18.474Z,54.20
2018-04-07T01:31:45.922Z,54.07
2018-04-07T01:34:14.341Z,53.94
2018-04-07T01:36:41.812Z,54.11
2018-04-07T01:39:09.298Z,53.95
2018-04-07T01:41:36.781Z,53.86
2018-04-07T01:44:04.241Z,53.93
2018-04-07T01:46:31.737Z,54.07
2018-04-07T01:48:59.182Z,54.03
2018-04-07T01:51:26.661Z,54.28
2018-04-07T01:53:54.113Z,54.38
2018-04-07T01:56:23.528Z,54.34
2018-04-07T01:58:52.460Z,54.43
2018-04-07T02:01:20.184Z,54.08
2018-04-07T02:03:47.641Z,54.41
2018-04-07T02:06:15.127Z,54.13
2018-04-07T02:08:42.570Z,53.70
2018-04-07T02:11:10.087Z,53.66
2018-04-07T02:13:37.529Z,53.57
2018-04-07T02:16:05.001Z,53.14
2018-04-07T02:18:32.449Z,53.16
2018-04-07T02:20:59.937Z,53.54
2018-04-07T02:23:27.407Z,53.23
2018-04-07T02:25:54.910Z,53.18
2018-04-07T02:28:22.400Z,53.03
2018-04-07T02:30:49.860Z,53.05
2018-04-07T02:33:17.371Z,53.37
2018-04-07T02:35:44.835Z,53.13
2018-04-07T02:38:12.329Z,52.94
2018-04-07T02:40:39.778Z,53.16
2018-04-07T02:43:07.258Z,52.82
2018-04-07T02:45:34.710Z,52.85
2018-04-07T02:48:03.163Z,53.12
2018-04-07T02:50:30.614Z,52.91
2018-04-07T02:52:58.100Z,52.95
2018-04-07T02:55:25.553Z,52.76
2018-04-07T02:57:53.037Z,53.44
2018-04-07T03:00:20.484Z,52.87
2018-04-07T03:02:47.961Z,52.85
2018-04-07T03:05:15.421Z,53.10
2018-04-07T03:07:42.940Z,52.83
2018-04-07T03:10:10.402Z,53.10
2018-04-07T03:12:37.881Z,53.21
2018-04-07T03:15:05.325Z,53.25
2018-04-07T03:17:32.782Z,53.77
2018-04-07T03:20:00.275Z,53.54
2018-04-07T03:22:27.738Z,53.55
2018-04-07T03:24:55.212Z,53.75
2018-04-07T03:27:22.652Z,54.09
2018-04-07T03:29:50.133Z,54.00
2018-04-07T03:32:17.573Z,54.07
2018-04-07T03:34:45.061Z,54.92
2018-04-07T03:37:12.520Z,54.53
2018-04-07T03:39:39.997Z,54.40
2018-04-07T03:42:08.424Z,54.95
2018-04-07T03:44:35.910Z,54.96
2018-04-07T03:47:03.356Z,55.66
2018-04-07T03:49:30.833Z,54.60
2018-04-07T03:51:58.296Z,54.89
2018-04-07T03:54:25.791Z,54.77
2018-04-07T03:56:53.245Z,55.37
2018-04-07T03:59:20.693Z,55.21
2018-04-07T04:01:48.165Z,55.00
2018-04-07T04:04:16.520Z,55.13
2018-04-07T04:06:44.012Z,54.92
2018-04-07T04:09:11.464Z,55.20
2018-04-07T04:11:38.945Z,55.12
2018-04-07T04:14:06.392Z,55.09
2018-04-07T04:16:33.869Z,54.95
2018-04-07T04:19:01.308Z,55.04
2018-04-07T04:21:28.810Z,54.88
2018-04-07T04:23:56.263Z,54.76
2018-04-07T04:26:23.744Z,55.23
2018-04-07T04:28:51.190Z,54.90
2018-04-07T04:31:18.661Z,54.63
2018-04-07T04:33:46.122Z,54.93
2018-04-07T04:36:14.572Z,54.99
2018-04-07T04:38:42.020Z,55.14
2018-04-07T04:41:09.500Z,55.02
2018-04-07T04:43:37.837Z,55.15
2018-04-07T04:46:05.275Z,55.09
2018-04-07T04:48:32.749Z,54.83
2018-04-07T04:51:00.197Z,55.09
2018-04-07T04:53:29.631Z,54.75
2018-04-07T04:55:58.081Z,54.69
2018-04-07T04:58:25.564Z,54.31
2018-04-07T05:00:53.003Z,54.24
2018-04-07T05:03:20.484Z,54.03
2018-04-07T05:05:47.938Z,53.70
2018-04-07T05:08:15.425Z,53.63
2018-04-07T05:10:42.873Z,53.75
2018-04-07T05:13:10.363Z,53.51
2018-04-07T05:15:37.824Z,53.26
2018-04-07T05:18:06.213Z,53.27
2018-04-07T05:20:33.666Z,52.84
2018-04-07T05:23:01.175Z,52.87
2018-04-07T05:25:29.605Z,53.05
2018-04-07T05:27:58.014Z,53.23
2018-04-07T05:30:25.472Z,52.88
2018-04-07T05:32:52.957Z,52.51
2018-04-07T05:35:20.421Z,52.64
2018-04-07T05:37:48.073Z,52.67
2018-04-07T05:40:15.533Z,52.83
2018-04-07T05:42:42.979Z,52.20
2018-04-07T05:45:11.454Z,51.64
2018-04-07T05:47:38.906Z,51.76
2018-04-07T05:50:06.393Z,51.80
2018-04-07T05:52:33.838Z,51.51
2018-04-07T05:55:01.317Z,51.74
2018-04-07T05:57:28.764Z,51.36
2018-04-07T05:59:56.258Z,51.02
2018-04-07T06:02:24.648Z,50.99
2018-04-07T06:04:52.142Z,50.69
2018-04-07T06:07:19.608Z,50.83
2018-04-07T06:09:49.024Z,50.67
2018-04-07T06:12:16.477Z,50.50
2018-04-07T06:14:43.958Z,50.43
2018-04-07T06:17:11.410Z,49.44
2018-04-07T06:19:38.889Z,49.26
2018-04-07T06:22:06.342Z,49.14
2018-04-07T06:24:33.864Z,49.08
2018-04-07T06:27:01.343Z,48.86
2018-04-07T06:29:28.827Z,49.18
2018-04-07T06:31:57.259Z,48.55
2018-04-07T06:34:24.754Z,48.25
2018-04-07T06:36:52.218Z,48.68
2018-04-07T06:39:19.719Z,47.47
2018-04-07T06:41:47.198Z,47.31
2018-04-07T06:44:14.653Z,47.57
2018-04-07T06:46:42.161Z,47.36
2018-04-07T06:49:09.638Z,46.86
2018-04-07T06:51:38.134Z,46.78
2018-04-07T06:54:06.564Z,46.42
2018-04-07T06:56:35.980Z,46.87
2018-04-07T06:59:03.462Z,46.32
2018-04-07T07:01:34.620Z,45.97
2018-04-07T07:04:05.014Z,46.30
2018-04-07T07:06:32.515Z,45.59
2018-04-07T07:09:00.028Z,44.81
2018-04-07T07:11:27.498Z,44.44
2018-04-07T07:13:54.958Z,44.21
2018-04-07T07:16:22.435Z,44.23
2018-04-07T07:18:49.888Z,43.79
2018-04-07T07:21:19.394Z,43.44
2018-04-07T07:23:47.861Z,42.77
2018-04-07T07:26:16.345Z,43.43
2018-04-07T07:28:44.802Z,42.92
2018-04-07T07:31:12.308Z,41.95
2018-04-07T07:33:39.761Z,41.40
2018-04-07T07:36:09.169Z,41.32
2018-04-07T07:38:38.731Z,40.36
2018-04-07T07:41:06.185Z,40.74
2018-04-07T07:43:34.577Z,39.87
2018-04-07T07:46:02.984Z,39.62
2018-04-07T07:48:31.442Z,39.41
2018-04-07T07:51:07.330Z,38.68
2018-04-07T07:53:49.681Z,38.57
2018-04-07T07:56:20.875Z,38.50
2018-04-07T07:58:48.377Z,37.35
2018-04-07T08:01:19.585Z,37.01
2018-04-07T08:03:47.112Z,36.69
2018-04-07T08:06:14.602Z,36.58
2018-04-07T08:08:42.097Z,36.84
2018-04-07T08:11:09.547Z,35.79
2018-04-07T08:13:37.025Z,36.20
2018-04-07T08:16:05.465Z,34.94
2018-04-07T08:18:32.948Z,35.54
2018-04-07T08:21:00.479Z,35.49
2018-04-07T08:23:27.989Z,36.07
2018-04-07T08:25:59.497Z,35.70
2018-04-07T08:28:26.994Z,35.52
2018-04-07T08:30:54.466Z,35.22
2018-04-07T08:33:22.052Z,35.22
2018-04-07T08:35:49.542Z,35.04
2018-04-07T08:38:19.011Z,34.12
2018-04-07T08:40:46.501Z,33.91
2018-04-07T08:43:13.944Z,34.69
2018-04-07T08:45:41.460Z,33.92
2018-04-07T08:48:09.870Z,33.74
2018-04-07T08:50:37.356Z,34.02
2018-04-07T08:53:04.797Z,33.99
2018-04-07T08:55:32.291Z,34.14
2018-04-07T08:57:59.754Z,34.15
2018-04-07T09:00:27.248Z,33.55
2018-04-07T09:02:54.699Z,34.05
2018-04-07T09:05:23.108Z,33.61
2018-04-07T09:07:50.559Z,33.71
2018-04-07T09:10:18.041Z,33.38
2018-04-07T09:12:45.509Z,33.31
2018-04-07T09:15:17.856Z,33.68
2018-04-07T09:17:45.545Z,33.36
2018-04-07T09:20:13.977Z,32.96
2018-04-07T09:22:42.369Z,33.02
2018-04-07T09:25:13.166Z,33.45
2018-04-07T09:27:41.622Z,33.94
2018-04-07T09:30:10.840Z,32.91
2018-04-07T09:32:38.325Z,32.86
2018-04-07T09:35:05.774Z,32.92
2018-04-07T09:37:33.238Z,33.06
2018-04-07T09:40:00.685Z,32.78
2018-04-07T09:42:28.166Z,32.27
2018-04-07T09:44:55.770Z,31.86
2018-04-07T09:47:23.253Z,32.40
2018-04-07T09:49:50.696Z,32.56
2018-04-07T09:52:18.173Z,32.53
2018-04-07T09:54:45.617Z,32.37
2018-04-07T09:57:14.075Z,32.56
2018-04-07T09:59:41.529Z,31.91
2018-04-07T10:02:09.017Z,31.71
2018-04-07T10:04:36.476Z,31.36
2018-04-07T10:07:03.943Z,31.55
2018-04-07T10:09:31.383Z,30.95
2018-04-07T10:11:58.880Z,30.96
2018-04-07T10:14:26.329Z,31.63
2018-04-07T10:16:53.771Z,31.34
2018-04-07T10:19:21.227Z,31.04
2018-04-07T10:21:49.619Z,30.62
2018-04-07T10:24:17.083Z,30.58
2018-04-07T10:26:44.523Z,30.46
2018-04-07T10:29:12.021Z,30.57
2018-04-07T10:31:40.489Z,30.82
2018-04-07T10:34:07.979Z,30.71
2018-04-07T10:36:35.510Z,31.71
2018-04-07T10:39:03.077Z,30.68
2018-04-07T10:41:30.528Z,30.71
2018-04-07T10:43:58.014Z,31.27
2018-04-07T10:46:25.470Z,30.42
2018-04-07T10:48:52.978Z,30.97
2018-04-07T10:51:20.434Z,30.69
2018-04-07T10:53:48.823Z,30.82
2018-04-07T10:56:16.281Z,31.30
2018-04-07T10:58:43.765Z,31.15
2018-04-07T11:01:11.237Z,29.94
2018-04-07T11:03:38.689Z,29.91
2018-04-07T11:06:06.191Z,29.49
2018-04-07T11:08:33.649Z,29.30
2018-04-07T11:11:01.130Z,28.92
2018-04-07T11:13:28.576Z,28.52
2018-04-07T11:15:56.073Z,28.54
2018-04-07T11:18:23.521Z,28.19
2018-04-07T11:20:50.996Z,29.10
2018-04-07T11:23:18.457Z,28.37
2018-04-07T11:25:45.941Z,27.59
2018-04-07T11:28:13.393Z,28.36
2018-04-07T11:30:40.880Z,27.96
2018-04-07T11:33:08.349Z,28.38
2018-04-07T11:35:35.890Z,29.41
2018-04-07T11:38:05.375Z,29.08
2018-04-07T11:40:32.840Z,29.31
2018-04-07T11:43:00.324Z,28.76
2018-04-07T11:45:27.788Z,28.67
2018-04-07T11:47:55.281Z,28.61
2018-04-07T11:50:22.746Z,29.20
2018-04-07T11:52:50.227Z,28.89
2018-04-07T11:55:17.686Z,28.41
2018-04-07T11:57:45.178Z,27.42
2018-04-07T12:00:13.520Z,27.69
2018-04-07T12:02:40.999Z,27.41
2018-04-07T12:05:09.361Z,26.70
2018-04-07T12:07:36.854Z,26.58
2018-04-07T12:10:04.301Z,26.71
2018-04-07T12:12:31.785Z,26.29
2018-04-07T12:14:59.239Z,27.09
2018-04-07T12:17:28.648Z,27.63
2018-04-07T12:19:57.120Z,27.18
2018-04-07T12:22:25.634Z,26.47
2018-04-07T12:24:53.090Z,26.58
2018-04-07T12:27:21.489Z,27.06
2018-04-07T12:29:49.034Z,28.07
2018-04-07T12:32:17.384Z,26.98
2018-04-07T12:34:44.874Z,27.59
2018-04-07T12:37:12.321Z,27.49
2018-04-07T12:39:39.805Z,27.36
2018-04-07T12:42:07.310Z,27.49
2018-04-07T12:44:35.726Z,27.55
2018-04-07T12:47:03.178Z,26.96
2018-04-07T12:49:30.660Z,27.03
2018-04-07T12:52:01.467Z,27.63
2018-04-07T12:54:30.960Z,27.54
2018-04-07T12:56:59.401Z,28.66
2018-04-07T12:59:26.890Z,26.87
2018-04-07T13:01:54.570Z,26.51
2018-04-07T13:04:22.071Z,26.38
2018-04-07T13:06:51.537Z,26.06
2018-04-07T13:09:19.021Z,25.38
2018-04-07T13:11:46.485Z,25.16
2018-04-07T13:14:13.977Z,24.83
2018-04-07T13:16:41.433Z,25.10
2018-04-07T13:19:10.881Z,25.87
2018-04-07T13:21:38.329Z,24.42
2018-04-07T13:24:05.815Z,24.52
2018-04-07T13:26:33.286Z,25.19
2018-04-07T13:29:00.773Z,24.62
2018-04-07T13:31:28.373Z,23.87
2018-04-07T13:33:57.781Z,23.02
2018-04-07T13:36:25.237Z,23.00
2018-04-07T13:38:52.789Z,22.62
2018-04-07T13:41:20.269Z,22.49
2018-04-07T13:43:47.725Z,21.99
2018-04-07T13:46:18.333Z,23.07
2018-04-07T13:48:47.701Z,22.69
2018-04-07T13:51:15.328Z,21.42
2018-04-07T13:53:42.809Z,21.55
2018-04-07T13:56:10.295Z,22.14
2018-04-07T13:58:37.753Z,22.65
2018-04-07T14:01:06.242Z,22.67
2018-04-07T14:03:35.636Z,23.76
2018-04-07T14:06:03.125Z,23.58
2018-04-07T14:08:30.593Z,24.40
2018-04-07T14:10:58.090Z,23.98
2018-04-07T14:13:26.471Z,24.55
2018-04-07T14:15:53.985Z,23.06
2018-04-07T14:18:21.457Z,22.64
2018-04-07T14:20:50.897Z,23.27
2018-04-07T14:23:19.297Z,25.94
2018-04-07T14:25:46.772Z,24.13
2018-04-07T14:28:14.264Z,24.01
2018-04-07T14:30:41.722Z,24.74
2018-04-07T14:33:10.145Z,24.34
2018-04-07T14:35:38.518Z,23.11
2018-04-07T14:38:07.105Z,23.68
2018-04-07T14:40:34.562Z,23.70
2018-04-07T14:45:52.370Z,23.86
2018-04-07T14:48:19.864Z,23.89
2018-04-07T14:50:47.316Z,23.07
2018-04-07T14:53:14.793Z,22.53
2018-04-07T14:55:43.145Z,22.37
2018-04-07T14:58:10.879Z,21.67
2018-04-07T15:00:38.333Z,21.67
2018-04-07T15:03:05.827Z,21.96
2018-04-07T15:05:33.284Z,19.09
2018-04-07T15:08:01.783Z,20.36
2018-04-07T15:10:29.226Z,20.60
2018-04-07T15:12:56.791Z,19.32
2018-04-07T15:15:24.243Z,19.46
2018-04-07T15:17:51.675Z,19.13
2018-04-07T15:20:20.081Z,18.11
2018-04-07T15:22:47.537Z,19.24
2018-04-07T15:25:15.026Z,19.88
2018-04-07T15:27:42.487Z,21.71
2018-04-07T15:30:10.019Z,22.37
2018-04-07T15:32:37.493Z,22.83
2018-04-07T15:35:04.978Z,21.56
2018-04-07T15:37:32.441Z,22.27
2018-04-07T15:40:00.860Z,23.76
2018-04-07T15:42:29.322Z,25.00
2018-04-07T15:44:56.913Z,25.40
2018-04-07T15:47:24.359Z,25.22
2018-04-07T15:49:51.865Z,24.66
2018-04-07T15:52:19.325Z,24.72
2018-04-07T15:54:46.836Z,23.88
2018-04-07T15:57:14.344Z,24.12
2018-04-07T15:59:41.817Z,23.30
2018-04-07T16:02:11.229Z,23.17
2018-04-07T16:04:38.684Z,24.15
2018-04-07T16:07:07.093Z,26.15
2018-04-07T16:09:34.540Z,26.77
2018-04-07T16:12:02.030Z,26.88
2018-04-07T16:14:30.396Z,26.71
2018-04-07T16:16:57.905Z,25.74
2018-04-07T16:19:25.397Z,24.66
2018-04-07T16:21:52.873Z,25.17
2018-04-07T16:24:20.337Z,24.32
2018-04-07T16:26:47.832Z,24.83
2018-04-07T16:29:15.322Z,26.30
2018-04-07T16:31:43.866Z,25.84
2018-04-07T16:34:12.292Z,26.35
2018-04-07T16:36:39.845Z,27.23
2018-04-07T16:39:08.229Z,27.26
2018-04-07T16:41:36.728Z,25.40
2018-04-07T16:44:08.953Z,25.42
2018-04-07T16:46:36.465Z,24.66
2018-04-07T16:49:04.549Z,25.89
2018-04-07T16:51:33.018Z,28.05
2018-04-07T16:54:04.006Z,28.97
2018-04-07T16:56:31.506Z,29.34
2018-04-07T16:58:58.973Z,29.31
2018-04-07T17:01:32.583Z,29.40
2018-04-07T17:04:00.071Z,29.57
2018-04-07T17:06:28.477Z,29.96
2018-04-07T17:08:56.885Z,30.18
2018-04-07T17:11:25.277Z,30.47
2018-04-07T17:13:52.769Z,31.10
2018-04-07T17:16:20.232Z,31.46
2018-04-07T17:18:47.724Z,31.60
2018-04-07T17:21:15.230Z,31.60
2018-04-07T17:23:42.741Z,32.06
2018-04-07T17:26:10.234Z,32.65
2018-04-07T17:28:37.754Z,32.34
2018-04-07T17:31:05.209Z,32.22
2018-04-07T17:33:32.707Z,32.49
2018-04-07T17:36:00.201Z,32.80
2018-04-07T17:38:27.758Z,32.81
2018-04-07T17:40:55.208Z,33.59
2018-04-07T17:43:22.722Z,34.35
2018-04-07T17:45:50.177Z,34.00
2018-04-07T17:48:17.654Z,34.73
2018-04-07T17:50:45.173Z,35.49
2018-04-07T17:53:12.650Z,35.05
2018-04-07T17:55:40.133Z,37.53
2018-04-07T17:58:07.712Z,36.27
2018-04-07T18:00:35.201Z,36.97
2018-04-07T18:03:03.555Z,37.69
2018-04-07T18:05:31.049Z,39.40
2018-04-07T18:07:59.464Z,38.67
2018-04-07T18:10:26.949Z,39.04
2018-04-07T18:12:55.397Z,39.34
2018-04-07T18:15:22.933Z,39.97
2018-04-07T18:17:50.418Z,40.11
2018-04-07T18:20:17.910Z,40.65
2018-04-07T18:22:45.459Z,41.23
2018-04-07T18:25:13.973Z,40.96
2018-04-07T18:27:41.437Z,40.65
2018-04-07T18:30:09.910Z,40.98
2018-04-07T18:32:37.364Z,41.31
2018-04-07T18:35:04.844Z,40.93
2018-04-07T18:37:32.356Z,40.28
2018-04-07T18:39:59.866Z,40.33
2018-04-07T18:42:27.365Z,40.63
2018-04-07T18:44:54.829Z,40.56
2018-04-07T18:47:23.280Z,40.86
2018-04-07T18:49:50.746Z,40.67
2018-04-07T18:52:19.205Z,40.61
2018-04-07T18:54:46.671Z,41.08
2018-04-07T18:57:15.861Z,41.55
2018-04-07T18:59:43.324Z,41.56
2018-04-07T19:02:11.754Z,41.92
2018-04-07T19:04:40.157Z,41.97
2018-04-07T19:07:07.645Z,42.67
2018-04-07T19:09:35.118Z,43.39
2018-04-07T19:12:02.613Z,43.58
2018-04-07T19:14:30.082Z,42.51
2018-04-07T19:16:57.568Z,42.63
2018-04-07T19:19:25.021Z,42.88
2018-04-07T19:21:52.533Z,43.63
2018-04-07T19:24:20.001Z,43.57
2018-04-07T19:26:47.457Z,44.02
2018-04-07T19:29:14.940Z,44.48
2018-04-07T19:31:42.404Z,42.89
2018-04-07T19:34:09.897Z,43.16
2018-04-07T19:36:37.379Z,43.71
2018-04-07T19:39:04.873Z,44.06
2018-04-07T19:41:33.278Z,43.71
2018-04-07T19:44:00.760Z,43.97
2018-04-07T19:46:28.234Z,43.97
2018-04-07T19:48:55.870Z,43.72
2018-04-07T19:51:23.370Z,43.70
2018-04-07T19:53:50.855Z,43.35
2018-04-07T19:56:18.353Z,43.76
2018-04-07T19:58:45.832Z,43.59
2018-04-07T20:01:13.402Z,43.14
2018-04-07T20:03:40.893Z,43.08
2018-04-07T20:06:08.361Z,42.78
2018-04-07T20:08:35.859Z,42.55
2018-04-07T20:11:03.322Z,42.33
2018-04-07T20:13:30.886Z,42.36
2018-04-07T20:15:58.381Z,41.86
2018-04-07T20:18:25.832Z,42.28
2018-04-07T20:20:53.308Z,41.72
2018-04-07T20:23:20.760Z,41.46
2018-04-07T20:25:48.256Z,41.60
2018-04-07T20:28:15.713Z,41.78
2018-04-07T20:30:45.125Z,41.69
2018-04-07T20:33:13.596Z,42.29
2018-04-07T20:35:43.020Z,41.64
2018-04-07T20:38:10.491Z,41.55
2018-04-07T20:40:37.983Z,41.72
2018-04-07T20:43:13.442Z,42.38
2018-04-07T20:45:40.974Z,42.23
2018-04-07T20:48:08.438Z,42.55
2018-04-07T20:50:35.983Z,42.39
2018-04-07T20:53:03.466Z,42.34
2018-04-07T20:55:30.961Z,42.46
2018-04-07T20:57:59.456Z,42.13
2018-04-07T21:00:27.026Z,41.32
2018-04-07T21:02:54.537Z,41.47
2018-04-07T21:05:22.025Z,41.58
2018-04-07T21:07:49.504Z,41.57
2018-04-07T21:10:17.080Z,41.37
2018-04-07T21:12:44.576Z,41.48
2018-04-07T21:15:12.038Z,41.50
2018-04-07T21:17:39.539Z,42.43
2018-04-07T21:20:07.044Z,42.41
2018-04-07T21:22:34.642Z,41.86
2018-04-07T21:25:02.096Z,41.89
2018-04-07T21:27:29.650Z,41.92
2018-04-07T21:29:57.135Z,41.79
2018-04-07T21:32:24.641Z,41.96
2018-04-07T21:34:52.097Z,42.31
2018-04-07T21:37:19.594Z,43.22
2018-04-07T21:39:47.058Z,42.79
2018-04-07T21:42:15.518Z,42.42
2018-04-07T21:44:43.178Z,42.61
2018-04-07T21:47:10.807Z,42.33
2018-04-07T21:49:38.296Z,42.83
2018-04-07T21:52:05.809Z,42.27
2018-04-07T21:54:33.300Z,42.38
2018-04-07T21:57:00.761Z,42.23
2018-04-07T21:59:28.248Z,42.80
2018-04-07T22:01:55.721Z,41.87
2018-04-07T22:04:23.233Z,41.65
2018-04-07T22:06:50.718Z,41.77
2018-04-07T22:09:18.210Z,41.64
2018-04-07T22:11:45.679Z,41.92
2018-04-07T22:14:14.181Z,42.26
2018-04-07T22:16:41.658Z,42.70
2018-04-07T22:19:09.146Z,42.83
2018-04-07T22:21:36.602Z,42.85
2018-04-07T22:24:04.053Z,43.09
2018-04-07T22:26:31.550Z,42.89
2018-04-07T22:28:59.113Z,43.59
2018-04-07T22:31:27.606Z,43.21
2018-04-07T22:33:56.041Z,43.50
2018-04-07T22:36:23.521Z,43.21
2018-04-07T22:38:51.973Z,43.09
2018-04-07T22:41:19.458Z,42.81
2018-04-07T22:43:47.026Z,42.85
2018-04-07T22:46:14.514Z,42.78
2018-04-07T22:48:41.968Z,43.00
2018-04-07T22:51:10.594Z,43.03
2018-04-07T22:53:38.060Z,44.04
2018-04-07T22:56:05.546Z,43.17
2018-04-07T22:58:32.993Z,43.43
2018-04-07T23:01:00.790Z,43.32
2018-04-07T23:03:28.245Z,43.34
2018-04-07T23:05:55.701Z,43.12
2018-04-07T23:08:23.296Z,42.99
2018-04-07T23:10:50.749Z,42.95
2018-04-07T23:13:18.241Z,43.17
2018-04-07T23:15:46.678Z,44.11
2018-04-07T23:18:14.170Z,43.10
2018-04-07T23:20:42.609Z,43.35
2018-04-07T23:23:12.085Z,43.28
2018-04-07T23:25:39.537Z,43.09
2018-04-07T23:28:07.937Z,43.18
2018-04-07T23:30:35.393Z,43.75
2018-04-07T23:33:03.813Z,43.41
2018-04-07T23:35:31.269Z,43.29
2018-04-07T23:37:58.757Z,43.08
2018-04-07T23:40:26.213Z,43.27
2018-04-07T23:42:53.722Z,43.22
2018-04-07T23:45:21.181Z,43.33
2018-04-07T23:47:48.673Z,43.74
2018-04-07T23:50:16.132Z,43.91
2018-04-07T23:52:43.632Z,44.34
2018-04-07T23:55:11.087Z,44.23
2018-04-07T23:57:38.599Z,44.32
